sensor_id;sensor_type;location;lat;lon;timestamp;temperature;humidity
61255;DHT22;47128;47.530;8.584;2022-09-09T00:07:10;14.60;99.90
61255;DHT22;47128;47.530;8.584;2022-09-09T00:09:45;14.70;99.90
61255;DHT22;47128;47.530;8.584;2022-09-09T00:12:27;14.80;99.90
61255;DHT22;47128;47.530;8.584;2022-09-09T00:15:07;14.80;99.90
61255;DHT22;47128;47.530;8.584;2022-09-09T00:20:25;14.80;99.90
61255;DHT22;47128;47.530;8.584;2022-09-09T00:23:19;14.80;99.90
61255;DHT22;47128;47.530;8.584;2022-09-09T00:25:58;14.80;99.90
61255;DHT22;47128;47.530;8.584;2022-09-09T00:28:27;14.90;99.90
61255;DHT22;47128;47.530;8.584;2022-09-09T00:30:53;14.80;99.90
61255;DHT22;47128;47.530;8.584;2022-09-09T00:33:23;14.70;99.90
61255;DHT22;47128;47.530;8.584;2022-09-09T00:36:00;14.60;99.90
61255;DHT22;47128;47.530;8.584;2022-09-09T00:38:35;14.70;99.90
61255;DHT22;47128;47.530;8.584;2022-09-09T00:43:36;14.70;99.90
61255;DHT22;47128;47.530;8.584;2022-09-09T00:56:52;14.70;99.90
61255;DHT22;47128;47.530;8.584;2022-09-09T00:59:32;14.70;99.90
61255;DHT22;47128;47.530;8.584;2022-09-09T01:02:03;14.80;99.90
61255;DHT22;47128;47.530;8.584;2022-09-09T01:04:36;14.80;99.90
61255;DHT22;47128;47.530;8.584;2022-09-09T01:07:17;14.90;99.90
61255;DHT22;47128;47.530;8.584;2022-09-09T01:09:51;15.00;99.90
61255;DHT22;47128;47.530;8.584;2022-09-09T01:12:45;15.10;99.90
61255;DHT22;47128;47.530;8.584;2022-09-09T01:15:13;15.20;99.90
61255;DHT22;47128;47.530;8.584;2022-09-09T01:20:38;15.30;99.90
61255;DHT22;47128;47.530;8.584;2022-09-09T01:26:45;15.30;99.90
61255;DHT22;47128;47.530;8.584;2022-09-09T01:28:41;15.20;99.90
61255;DHT22;47128;47.530;8.584;2022-09-09T01:31:11;15.20;99.90
61255;DHT22;47128;47.530;8.584;2022-09-09T01:33:37;15.20;99.90
61255;DHT22;47128;47.530;8.584;2022-09-09T01:36:11;15.10;99.90
61255;DHT22;47128;47.530;8.584;2022-09-09T01:38:39;15.00;99.90
61255;DHT22;47128;47.530;8.584;2022-09-09T01:41:05;15.00;99.90
61255;DHT22;47128;47.530;8.584;2022-09-09T01:43:30;14.90;99.90
61255;DHT22;47128;47.530;8.584;2022-09-09T01:45:59;14.90;99.90
61255;DHT22;47128;47.530;8.584;2022-09-09T01:48:26;14.90;99.90
61255;DHT22;47128;47.530;8.584;2022-09-09T01:50:52;15.00;99.90
61255;DHT22;47128;47.530;8.584;2022-09-09T01:53:19;14.90;99.90
61255;DHT22;47128;47.530;8.584;2022-09-09T02:04:40;14.90;99.90
61255;DHT22;47128;47.530;8.584;2022-09-09T02:07:30;15.00;99.90
61255;DHT22;47128;47.530;8.584;2022-09-09T02:10:09;15.10;99.90
61255;DHT22;47128;47.530;8.584;2022-09-09T02:12:42;15.10;99.90
61255;DHT22;47128;47.530;8.584;2022-09-09T02:15:26;15.10;99.90
61255;DHT22;47128;47.530;8.584;2022-09-09T02:17:52;15.00;99.90
61255;DHT22;47128;47.530;8.584;2022-09-09T02:20:20;15.10;99.90
61255;DHT22;47128;47.530;8.584;2022-09-09T02:22:49;15.00;99.90
61255;DHT22;47128;47.530;8.584;2022-09-09T02:25:18;15.00;99.90
61255;DHT22;47128;47.530;8.584;2022-09-09T02:27:45;15.00;99.90
61255;DHT22;47128;47.530;8.584;2022-09-09T02:30:12;14.90;99.90
61255;DHT22;47128;47.530;8.584;2022-09-09T02:32:39;14.90;99.90
61255;DHT22;47128;47.530;8.584;2022-09-09T02:35:10;15.00;99.90
61255;DHT22;47128;47.530;8.584;2022-09-09T02:37:39;15.00;99.90
61255;DHT22;47128;47.530;8.584;2022-09-09T02:40:06;14.90;99.90
61255;DHT22;47128;47.530;8.584;2022-09-09T02:42:42;14.90;99.90
61255;DHT22;47128;47.530;8.584;2022-09-09T02:45:09;14.90;99.90
61255;DHT22;47128;47.530;8.584;2022-09-09T02:47:41;15.00;99.90
61255;DHT22;47128;47.530;8.584;2022-09-09T02:50:16;15.00;99.90
61255;DHT22;47128;47.530;8.584;2022-09-09T02:56:00;15.10;99.90
61255;DHT22;47128;47.530;8.584;2022-09-09T02:58:29;15.20;99.90
61255;DHT22;47128;47.530;8.584;2022-09-09T03:00:55;15.20;99.90
61255;DHT22;47128;47.530;8.584;2022-09-09T03:03:23;15.20;99.90
61255;DHT22;47128;47.530;8.584;2022-09-09T03:05:49;15.20;99.90
61255;DHT22;47128;47.530;8.584;2022-09-09T03:08:15;15.30;99.90
61255;DHT22;47128;47.530;8.584;2022-09-09T03:10:41;15.40;99.90
61255;DHT22;47128;47.530;8.584;2022-09-09T03:13:07;15.40;99.90
61255;DHT22;47128;47.530;8.584;2022-09-09T03:15:34;15.40;99.90
61255;DHT22;47128;47.530;8.584;2022-09-09T03:18:00;15.40;99.90
61255;DHT22;47128;47.530;8.584;2022-09-09T03:20:28;15.40;99.90
61255;DHT22;47128;47.530;8.584;2022-09-09T03:22:54;15.40;99.90
61255;DHT22;47128;47.530;8.584;2022-09-09T03:25:21;15.40;99.90
61255;DHT22;47128;47.530;8.584;2022-09-09T03:27:49;15.50;99.90
61255;DHT22;47128;47.530;8.584;2022-09-09T03:30:15;15.50;99.90
61255;DHT22;47128;47.530;8.584;2022-09-09T03:32:41;15.60;99.90
61255;DHT22;47128;47.530;8.584;2022-09-09T03:35:07;15.50;99.90
61255;DHT22;47128;47.530;8.584;2022-09-09T03:37:33;15.50;99.90
61255;DHT22;47128;47.530;8.584;2022-09-09T03:39:59;15.40;99.90
61255;DHT22;47128;47.530;8.584;2022-09-09T03:42:25;15.40;99.90
61255;DHT22;47128;47.530;8.584;2022-09-09T03:44:51;15.40;99.90
61255;DHT22;47128;47.530;8.584;2022-09-09T03:47:20;15.40;99.90
61255;DHT22;47128;47.530;8.584;2022-09-09T03:49:47;15.40;99.90
61255;DHT22;47128;47.530;8.584;2022-09-09T03:52:14;15.40;99.90
61255;DHT22;47128;47.530;8.584;2022-09-09T03:54:40;15.40;99.90
61255;DHT22;47128;47.530;8.584;2022-09-09T03:57:06;15.40;99.90
61255;DHT22;47128;47.530;8.584;2022-09-09T03:59:32;15.50;99.90
61255;DHT22;47128;47.530;8.584;2022-09-09T04:01:58;15.50;99.90
61255;DHT22;47128;47.530;8.584;2022-09-09T04:04:24;15.50;99.90
61255;DHT22;47128;47.530;8.584;2022-09-09T04:06:51;15.50;99.90
61255;DHT22;47128;47.530;8.584;2022-09-09T04:09:17;15.40;99.90
61255;DHT22;47128;47.530;8.584;2022-09-09T04:11:43;15.40;99.90
61255;DHT22;47128;47.530;8.584;2022-09-09T04:14:08;15.30;99.90
61255;DHT22;47128;47.530;8.584;2022-09-09T04:16:34;15.40;99.90
61255;DHT22;47128;47.530;8.584;2022-09-09T04:19:02;15.30;99.90
61255;DHT22;47128;47.530;8.584;2022-09-09T04:21:30;15.30;99.90
61255;DHT22;47128;47.530;8.584;2022-09-09T04:23:55;15.40;99.90
61255;DHT22;47128;47.530;8.584;2022-09-09T04:26:21;15.40;99.90
61255;DHT22;47128;47.530;8.584;2022-09-09T04:28:47;15.40;99.90
61255;DHT22;47128;47.530;8.584;2022-09-09T04:31:20;15.40;99.90
61255;DHT22;47128;47.530;8.584;2022-09-09T04:33:49;15.30;99.90
61255;DHT22;47128;47.530;8.584;2022-09-09T04:36:15;15.30;99.90
61255;DHT22;47128;47.530;8.584;2022-09-09T04:38:41;15.30;99.90
61255;DHT22;47128;47.530;8.584;2022-09-09T04:41:07;15.30;99.90
61255;DHT22;47128;47.530;8.584;2022-09-09T04:43:33;15.30;99.90
61255;DHT22;47128;47.530;8.584;2022-09-09T04:46:03;15.30;99.90
61255;DHT22;47128;47.530;8.584;2022-09-09T04:48:28;15.30;99.90
61255;DHT22;47128;47.530;8.584;2022-09-09T04:50:57;15.30;99.90
61255;DHT22;47128;47.530;8.584;2022-09-09T04:53:23;15.20;99.90
61255;DHT22;47128;47.530;8.584;2022-09-09T04:55:51;15.20;99.90
61255;DHT22;47128;47.530;8.584;2022-09-09T04:58:16;15.20;99.90
61255;DHT22;47128;47.530;8.584;2022-09-09T05:00:42;15.20;99.90
61255;DHT22;47128;47.530;8.584;2022-09-09T05:03:08;15.10;99.90
61255;DHT22;47128;47.530;8.584;2022-09-09T05:05:34;15.10;99.90
61255;DHT22;47128;47.530;8.584;2022-09-09T05:08:05;15.10;99.90
61255;DHT22;47128;47.530;8.584;2022-09-09T05:10:31;15.10;99.90
61255;DHT22;47128;47.530;8.584;2022-09-09T05:12:57;15.10;99.90
61255;DHT22;47128;47.530;8.584;2022-09-09T05:15:23;15.10;99.90
61255;DHT22;47128;47.530;8.584;2022-09-09T05:17:49;15.10;99.90
61255;DHT22;47128;47.530;8.584;2022-09-09T05:20:14;15.10;99.90
61255;DHT22;47128;47.530;8.584;2022-09-09T05:22:40;15.10;99.90
61255;DHT22;47128;47.530;8.584;2022-09-09T05:25:06;15.10;99.90
61255;DHT22;47128;47.530;8.584;2022-09-09T05:27:39;15.20;99.90
61255;DHT22;47128;47.530;8.584;2022-09-09T05:30:05;15.30;99.90
61255;DHT22;47128;47.530;8.584;2022-09-09T05:32:30;15.30;99.90
61255;DHT22;47128;47.530;8.584;2022-09-09T05:34:59;15.20;99.90
61255;DHT22;47128;47.530;8.584;2022-09-09T05:37:25;15.30;99.90
61255;DHT22;47128;47.530;8.584;2022-09-09T05:39:50;15.20;99.90
61255;DHT22;47128;47.530;8.584;2022-09-09T05:42:16;15.20;99.90
61255;DHT22;47128;47.530;8.584;2022-09-09T05:44:42;15.20;99.90
61255;DHT22;47128;47.530;8.584;2022-09-09T05:47:08;15.20;99.90
61255;DHT22;47128;47.530;8.584;2022-09-09T05:49:34;15.30;99.90
61255;DHT22;47128;47.530;8.584;2022-09-09T05:52:00;15.30;99.90
61255;DHT22;47128;47.530;8.584;2022-09-09T05:54:26;15.30;99.90
61255;DHT22;47128;47.530;8.584;2022-09-09T05:56:51;15.30;99.90
61255;DHT22;47128;47.530;8.584;2022-09-09T05:59:19;15.30;99.90
61255;DHT22;47128;47.530;8.584;2022-09-09T06:01:44;15.30;99.90
61255;DHT22;47128;47.530;8.584;2022-09-09T06:04:12;15.30;99.90
61255;DHT22;47128;47.530;8.584;2022-09-09T06:06:56;15.40;99.90
61255;DHT22;47128;47.530;8.584;2022-09-09T06:09:24;15.50;99.90
61255;DHT22;47128;47.530;8.584;2022-09-09T06:11:52;15.50;99.90
61255;DHT22;47128;47.530;8.584;2022-09-09T06:14:21;15.60;99.90
61255;DHT22;47128;47.530;8.584;2022-09-09T06:16:47;15.60;99.90
61255;DHT22;47128;47.530;8.584;2022-09-09T06:19:12;15.70;99.90
61255;DHT22;47128;47.530;8.584;2022-09-09T06:21:38;15.70;99.90
61255;DHT22;47128;47.530;8.584;2022-09-09T06:24:08;15.90;99.90
61255;DHT22;47128;47.530;8.584;2022-09-09T06:26:42;15.90;99.90
61255;DHT22;47128;47.530;8.584;2022-09-09T06:29:09;15.80;99.90
61255;DHT22;47128;47.530;8.584;2022-09-09T06:31:36;15.80;99.90
61255;DHT22;47128;47.530;8.584;2022-09-09T06:34:06;15.80;99.90
61255;DHT22;47128;47.530;8.584;2022-09-09T06:36:35;15.90;99.90
61255;DHT22;47128;47.530;8.584;2022-09-09T06:39:02;15.90;99.90
61255;DHT22;47128;47.530;8.584;2022-09-09T06:41:30;15.80;99.90
61255;DHT22;47128;47.530;8.584;2022-09-09T06:43:56;15.60;99.90
61255;DHT22;47128;47.530;8.584;2022-09-09T06:46:30;15.60;99.90
61255;DHT22;47128;47.530;8.584;2022-09-09T06:49:00;15.70;99.90
61255;DHT22;47128;47.530;8.584;2022-09-09T06:51:30;15.80;99.90
61255;DHT22;47128;47.530;8.584;2022-09-09T06:53:58;16.00;99.90
61255;DHT22;47128;47.530;8.584;2022-09-09T06:56:27;16.10;99.90
61255;DHT22;47128;47.530;8.584;2022-09-09T06:58:54;16.10;99.90
61255;DHT22;47128;47.530;8.584;2022-09-09T07:01:22;16.30;99.90
61255;DHT22;47128;47.530;8.584;2022-09-09T07:03:53;16.40;99.90
61255;DHT22;47128;47.530;8.584;2022-09-09T07:06:49;16.60;99.90
61255;DHT22;47128;47.530;8.584;2022-09-09T07:09:33;16.80;99.90
61255;DHT22;47128;47.530;8.584;2022-09-09T07:11:59;17.10;99.90
61255;DHT22;47128;47.530;8.584;2022-09-09T07:14:49;17.20;99.90
61255;DHT22;47128;47.530;8.584;2022-09-09T07:17:31;17.10;99.90
61255;DHT22;47128;47.530;8.584;2022-09-09T07:20:14;17.20;99.90
61255;DHT22;47128;47.530;8.584;2022-09-09T07:26:38;17.50;99.90
61255;DHT22;47128;47.530;8.584;2022-09-09T07:29:05;17.60;99.90
61255;DHT22;47128;47.530;8.584;2022-09-09T07:31:33;17.70;99.90
61255;DHT22;47128;47.530;8.584;2022-09-09T07:34:02;17.80;99.90
61255;DHT22;47128;47.530;8.584;2022-09-09T07:36:30;17.90;99.90
61255;DHT22;47128;47.530;8.584;2022-09-09T07:39:11;18.00;99.90
61255;DHT22;47128;47.530;8.584;2022-09-09T07:41:45;18.10;99.90
61255;DHT22;47128;47.530;8.584;2022-09-09T07:44:17;18.30;99.90
61255;DHT22;47128;47.530;8.584;2022-09-09T07:46:49;18.40;99.90
61255;DHT22;47128;47.530;8.584;2022-09-09T07:49:23;18.60;99.90
61255;DHT22;47128;47.530;8.584;2022-09-09T07:52:09;18.70;99.90
61255;DHT22;47128;47.530;8.584;2022-09-09T07:54:47;18.60;99.90
61255;DHT22;47128;47.530;8.584;2022-09-09T07:57:17;18.70;99.90
61255;DHT22;47128;47.530;8.584;2022-09-09T07:59:43;18.80;99.90
61255;DHT22;47128;47.530;8.584;2022-09-09T08:02:18;18.80;99.90
61255;DHT22;47128;47.530;8.584;2022-09-09T08:04:46;18.80;99.90
61255;DHT22;47128;47.530;8.584;2022-09-09T08:07:12;18.90;99.90
61255;DHT22;47128;47.530;8.584;2022-09-09T08:09:41;18.90;99.90
61255;DHT22;47128;47.530;8.584;2022-09-09T08:12:10;19.00;99.90
61255;DHT22;47128;47.530;8.584;2022-09-09T08:14:39;19.10;99.90
61255;DHT22;47128;47.530;8.584;2022-09-09T08:17:05;19.20;99.90
61255;DHT22;47128;47.530;8.584;2022-09-09T08:19:32;19.30;99.90
61255;DHT22;47128;47.530;8.584;2022-09-09T08:22:04;19.30;99.90
61255;DHT22;47128;47.530;8.584;2022-09-09T08:24:34;19.50;99.90
61255;DHT22;47128;47.530;8.584;2022-09-09T08:27:24;19.70;99.70
61255;DHT22;47128;47.530;8.584;2022-09-09T08:29:52;20.00;99.70
61255;DHT22;47128;47.530;8.584;2022-09-09T08:32:44;20.40;99.40
61255;DHT22;47128;47.530;8.584;2022-09-09T08:35:18;20.60;97.90
61255;DHT22;47128;47.530;8.584;2022-09-09T08:37:53;21.00;99.20
61255;DHT22;47128;47.530;8.584;2022-09-09T08:40:26;21.30;96.90
61255;DHT22;47128;47.530;8.584;2022-09-09T08:46:22;20.80;96.50
61255;DHT22;47128;47.530;8.584;2022-09-09T08:52:03;20.10;96.80
61255;DHT22;47128;47.530;8.584;2022-09-09T08:55:11;20.00;97.10
61255;DHT22;47128;47.530;8.584;2022-09-09T08:57:39;20.10;96.00
61255;DHT22;47128;47.530;8.584;2022-09-09T09:00:09;20.30;97.10
61255;DHT22;47128;47.530;8.584;2022-09-09T09:03:03;20.30;95.90
61255;DHT22;47128;47.530;8.584;2022-09-09T09:15:36;20.80;96.10
61255;DHT22;47128;47.530;8.584;2022-09-09T09:18:08;21.20;96.20
61255;DHT22;47128;47.530;8.584;2022-09-09T09:21:20;21.40;96.00
61255;DHT22;47128;47.530;8.584;2022-09-09T09:24:42;21.70;95.10
61255;DHT22;47128;47.530;8.584;2022-09-09T09:27:16;21.90;94.50
61255;DHT22;47128;47.530;8.584;2022-09-09T09:29:55;21.70;94.30
61255;DHT22;47128;47.530;8.584;2022-09-09T09:32:37;21.80;94.00
61255;DHT22;47128;47.530;8.584;2022-09-09T09:35:14;22.20;93.10
61255;DHT22;47128;47.530;8.584;2022-09-09T09:38:00;22.20;92.70
61255;DHT22;47128;47.530;8.584;2022-09-09T09:40:52;22.20;92.40
61255;DHT22;47128;47.530;8.584;2022-09-09T09:43:59;22.20;92.70
61255;DHT22;47128;47.530;8.584;2022-09-09T09:46:32;22.20;91.40
61255;DHT22;47128;47.530;8.584;2022-09-09T09:49:05;22.20;91.50
61255;DHT22;47128;47.530;8.584;2022-09-09T09:51:32;21.70;91.60
61255;DHT22;47128;47.530;8.584;2022-09-09T09:54:18;21.60;92.00
61255;DHT22;47128;47.530;8.584;2022-09-09T09:56:46;21.30;91.20
61255;DHT22;47128;47.530;8.584;2022-09-09T10:02:23;20.90;91.80
61255;DHT22;47128;47.530;8.584;2022-09-09T10:07:43;20.50;91.90
61255;DHT22;47128;47.530;8.584;2022-09-09T10:10:20;20.30;94.30
61255;DHT22;47128;47.530;8.584;2022-09-09T10:13:30;19.80;94.50
61255;DHT22;47128;47.530;8.584;2022-09-09T10:19:32;19.20;99.80
61255;DHT22;47128;47.530;8.584;2022-09-09T10:25:26;18.50;99.90
61255;DHT22;47128;47.530;8.584;2022-09-09T10:31:23;18.10;99.90
61255;DHT22;47128;47.530;8.584;2022-09-09T10:33:57;17.90;99.90
61255;DHT22;47128;47.530;8.584;2022-09-09T10:36:35;18.10;99.90
61255;DHT22;47128;47.530;8.584;2022-09-09T10:46:01;19.50;99.90
61255;DHT22;47128;47.530;8.584;2022-09-09T10:55:14;20.90;99.70
61255;DHT22;47128;47.530;8.584;2022-09-09T10:58:01;20.70;99.50
61255;DHT22;47128;47.530;8.584;2022-09-09T11:01:24;20.60;98.40
61255;DHT22;47128;47.530;8.584;2022-09-09T11:07:35;20.90;99.90
61255;DHT22;47128;47.530;8.584;2022-09-09T11:27:52;21.40;99.90
61255;DHT22;47128;47.530;8.584;2022-09-09T11:36:56;21.40;93.90
61255;DHT22;47128;47.530;8.584;2022-09-09T11:39:39;21.70;93.10
61255;DHT22;47128;47.530;8.584;2022-09-09T11:42:07;22.00;93.40
61255;DHT22;47128;47.530;8.584;2022-09-09T11:44:41;22.30;92.20
61255;DHT22;47128;47.530;8.584;2022-09-09T11:47:22;22.60;92.90
61255;DHT22;47128;47.530;8.584;2022-09-09T11:50:40;23.20;93.30
61255;DHT22;47128;47.530;8.584;2022-09-09T11:52:43;23.50;93.10
61255;DHT22;47128;47.530;8.584;2022-09-09T12:00:59;25.70;88.80
61255;DHT22;47128;47.530;8.584;2022-09-09T12:03:55;27.30;84.20
61255;DHT22;47128;47.530;8.584;2022-09-09T12:16:33;27.60;74.10
61255;DHT22;47128;47.530;8.584;2022-09-09T12:19:30;26.50;77.00
61255;DHT22;47128;47.530;8.584;2022-09-09T12:22:40;24.90;78.30
61255;DHT22;47128;47.530;8.584;2022-09-09T12:28:14;24.40;79.10
61255;DHT22;47128;47.530;8.584;2022-09-09T12:34:27;24.80;75.80
61255;DHT22;47128;47.530;8.584;2022-09-09T12:40:18;24.50;73.60
61255;DHT22;47128;47.530;8.584;2022-09-09T12:42:49;24.00;74.30
61255;DHT22;47128;47.530;8.584;2022-09-09T12:53:38;23.80;75.90
61255;DHT22;47128;47.530;8.584;2022-09-09T12:56:08;24.00;77.30
61255;DHT22;47128;47.530;8.584;2022-09-09T12:59:25;24.20;75.20
61255;DHT22;47128;47.530;8.584;2022-09-09T13:02:00;24.50;78.00
61255;DHT22;47128;47.530;8.584;2022-09-09T13:04:34;24.60;72.60
61255;DHT22;47128;47.530;8.584;2022-09-09T13:07:07;24.80;73.50
61255;DHT22;47128;47.530;8.584;2022-09-09T13:09:47;24.80;74.00
61255;DHT22;47128;47.530;8.584;2022-09-09T13:12:33;24.70;73.90
61255;DHT22;47128;47.530;8.584;2022-09-09T13:15:00;24.70;74.60
61255;DHT22;47128;47.530;8.584;2022-09-09T13:17:34;25.00;73.60
61255;DHT22;47128;47.530;8.584;2022-09-09T13:20:01;25.00;73.80
61255;DHT22;47128;47.530;8.584;2022-09-09T13:22:48;25.30;72.70
61255;DHT22;47128;47.530;8.584;2022-09-09T13:25:34;25.20;68.90
61255;DHT22;47128;47.530;8.584;2022-09-09T13:28:29;24.80;69.80
61255;DHT22;47128;47.530;8.584;2022-09-09T13:31:03;24.80;75.70
61255;DHT22;47128;47.530;8.584;2022-09-09T13:33:43;24.70;75.60
61255;DHT22;47128;47.530;8.584;2022-09-09T13:36:59;24.70;70.30
61255;DHT22;47128;47.530;8.584;2022-09-09T13:42:44;24.90;72.50
61255;DHT22;47128;47.530;8.584;2022-09-09T13:45:34;25.20;71.10
61255;DHT22;47128;47.530;8.584;2022-09-09T13:48:09;25.30;70.70
61255;DHT22;47128;47.530;8.584;2022-09-09T13:50:43;25.50;69.60
61255;DHT22;47128;47.530;8.584;2022-09-09T13:53:23;25.20;70.00
61255;DHT22;47128;47.530;8.584;2022-09-09T13:55:50;25.50;70.30
61255;DHT22;47128;47.530;8.584;2022-09-09T13:58:17;25.70;68.00
61255;DHT22;47128;47.530;8.584;2022-09-09T14:00:46;25.70;68.90
61255;DHT22;47128;47.530;8.584;2022-09-09T14:03:14;25.60;69.10
61255;DHT22;47128;47.530;8.584;2022-09-09T14:05:49;25.70;68.30
61255;DHT22;47128;47.530;8.584;2022-09-09T14:08:25;25.70;65.80
61255;DHT22;47128;47.530;8.584;2022-09-09T14:10:53;25.40;64.20
61255;DHT22;47128;47.530;8.584;2022-09-09T14:13:21;25.00;65.60
61255;DHT22;47128;47.530;8.584;2022-09-09T14:15:50;24.70;67.90
61255;DHT22;47128;47.530;8.584;2022-09-09T14:18:16;24.20;69.60
61255;DHT22;47128;47.530;8.584;2022-09-09T14:20:41;24.10;73.90
61255;DHT22;47128;47.530;8.584;2022-09-09T14:23:10;24.00;71.10
61255;DHT22;47128;47.530;8.584;2022-09-09T14:25:36;24.10;71.90
61255;DHT22;47128;47.530;8.584;2022-09-09T14:28:01;24.00;72.00
61255;DHT22;47128;47.530;8.584;2022-09-09T14:30:27;24.10;71.50
61255;DHT22;47128;47.530;8.584;2022-09-09T14:32:53;24.20;71.70
61255;DHT22;47128;47.530;8.584;2022-09-09T14:35:19;24.20;71.30
61255;DHT22;47128;47.530;8.584;2022-09-09T14:37:45;24.10;71.10
61255;DHT22;47128;47.530;8.584;2022-09-09T14:40:13;24.10;71.90
61255;DHT22;47128;47.530;8.584;2022-09-09T14:42:40;23.90;72.90
61255;DHT22;47128;47.530;8.584;2022-09-09T14:47:32;23.70;71.70
61255;DHT22;47128;47.530;8.584;2022-09-09T14:49:58;23.60;72.50
61255;DHT22;47128;47.530;8.584;2022-09-09T14:52:23;23.50;72.70
61255;DHT22;47128;47.530;8.584;2022-09-09T14:54:50;23.50;72.30
61255;DHT22;47128;47.530;8.584;2022-09-09T14:57:16;23.60;73.40
61255;DHT22;47128;47.530;8.584;2022-09-09T14:59:42;23.60;73.50
61255;DHT22;47128;47.530;8.584;2022-09-09T15:02:08;23.80;73.00
61255;DHT22;47128;47.530;8.584;2022-09-09T15:04:34;23.70;72.90
61255;DHT22;47128;47.530;8.584;2022-09-09T15:07:01;23.60;72.70
61255;DHT22;47128;47.530;8.584;2022-09-09T15:09:28;23.70;73.00
61255;DHT22;47128;47.530;8.584;2022-09-09T15:11:53;23.70;72.40
61255;DHT22;47128;47.530;8.584;2022-09-09T15:14:19;23.60;72.70
61255;DHT22;47128;47.530;8.584;2022-09-09T15:16:44;23.70;72.30
61255;DHT22;47128;47.530;8.584;2022-09-09T15:19:10;23.60;73.10
61255;DHT22;47128;47.530;8.584;2022-09-09T15:21:37;23.70;72.30
61255;DHT22;47128;47.530;8.584;2022-09-09T15:24:03;23.70;72.10
61255;DHT22;47128;47.530;8.584;2022-09-09T15:26:30;23.60;71.70
61255;DHT22;47128;47.530;8.584;2022-09-09T15:28:56;23.60;72.20
61255;DHT22;47128;47.530;8.584;2022-09-09T15:31:26;23.60;72.10
61255;DHT22;47128;47.530;8.584;2022-09-09T15:34:13;23.70;71.00
61255;DHT22;47128;47.530;8.584;2022-09-09T15:36:43;23.60;71.50
61255;DHT22;47128;47.530;8.584;2022-09-09T15:39:14;23.60;71.20
61255;DHT22;47128;47.530;8.584;2022-09-09T15:41:44;23.70;71.60
61255;DHT22;47128;47.530;8.584;2022-09-09T15:44:11;23.60;71.30
61255;DHT22;47128;47.530;8.584;2022-09-09T15:46:42;23.60;71.60
61255;DHT22;47128;47.530;8.584;2022-09-09T15:49:16;23.70;72.00
61255;DHT22;47128;47.530;8.584;2022-09-09T15:51:46;23.60;71.90
61255;DHT22;47128;47.530;8.584;2022-09-09T15:54:15;23.60;71.90
61255;DHT22;47128;47.530;8.584;2022-09-09T15:56:42;23.40;72.00
61255;DHT22;47128;47.530;8.584;2022-09-09T15:59:09;23.40;71.60
61255;DHT22;47128;47.530;8.584;2022-09-09T16:01:37;23.40;72.10
61255;DHT22;47128;47.530;8.584;2022-09-09T16:04:07;23.50;72.10
61255;DHT22;47128;47.530;8.584;2022-09-09T16:06:33;23.60;72.10
61255;DHT22;47128;47.530;8.584;2022-09-09T16:08:59;23.60;72.00
61255;DHT22;47128;47.530;8.584;2022-09-09T16:11:37;23.50;72.60
61255;DHT22;47128;47.530;8.584;2022-09-09T16:14:03;23.50;71.70
61255;DHT22;47128;47.530;8.584;2022-09-09T16:16:30;23.30;72.40
61255;DHT22;47128;47.530;8.584;2022-09-09T16:19:00;23.40;72.60
61255;DHT22;47128;47.530;8.584;2022-09-09T16:21:29;23.40;74.70
61255;DHT22;47128;47.530;8.584;2022-09-09T16:24:00;23.10;76.70
61255;DHT22;47128;47.530;8.584;2022-09-09T16:26:31;23.00;76.70
61255;DHT22;47128;47.530;8.584;2022-09-09T16:28:57;22.90;75.60
61255;DHT22;47128;47.530;8.584;2022-09-09T16:31:24;22.90;74.80
61255;DHT22;47128;47.530;8.584;2022-09-09T16:33:50;22.80;75.10
61255;DHT22;47128;47.530;8.584;2022-09-09T16:36:18;22.90;75.00
61255;DHT22;47128;47.530;8.584;2022-09-09T16:38:44;22.90;73.70
61255;DHT22;47128;47.530;8.584;2022-09-09T16:41:12;22.90;74.00
61255;DHT22;47128;47.530;8.584;2022-09-09T16:43:39;22.70;73.10
61255;DHT22;47128;47.530;8.584;2022-09-09T16:46:18;22.40;73.90
61255;DHT22;47128;47.530;8.584;2022-09-09T16:48:46;22.20;74.30
61255;DHT22;47128;47.530;8.584;2022-09-09T16:51:18;22.00;74.30
61255;DHT22;47128;47.530;8.584;2022-09-09T16:53:44;21.90;76.50
61255;DHT22;47128;47.530;8.584;2022-09-09T16:56:12;21.70;78.10
61255;DHT22;47128;47.530;8.584;2022-09-09T16:58:39;21.40;82.00
61255;DHT22;47128;47.530;8.584;2022-09-09T17:01:05;21.10;83.30
61255;DHT22;47128;47.530;8.584;2022-09-09T17:03:31;20.80;84.30
61255;DHT22;47128;47.530;8.584;2022-09-09T17:06:09;20.60;85.80
61255;DHT22;47128;47.530;8.584;2022-09-09T17:08:34;20.50;91.00
61255;DHT22;47128;47.530;8.584;2022-09-09T17:11:01;20.30;93.80
61255;DHT22;47128;47.530;8.584;2022-09-09T17:13:26;20.10;88.80
61255;DHT22;47128;47.530;8.584;2022-09-09T17:15:52;19.90;91.00
61255;DHT22;47128;47.530;8.584;2022-09-09T17:18:18;19.00;94.30
61255;DHT22;47128;47.530;8.584;2022-09-09T17:20:43;18.50;93.10
61255;DHT22;47128;47.530;8.584;2022-09-09T17:23:10;18.30;94.10
61255;DHT22;47128;47.530;8.584;2022-09-09T17:25:37;18.20;95.50
61255;DHT22;47128;47.530;8.584;2022-09-09T17:28:03;18.00;94.40
61255;DHT22;47128;47.530;8.584;2022-09-09T17:30:32;18.00;96.70
61255;DHT22;47128;47.530;8.584;2022-09-09T17:32:59;17.90;97.80
61255;DHT22;47128;47.530;8.584;2022-09-09T17:35:25;17.80;97.60
61255;DHT22;47128;47.530;8.584;2022-09-09T17:37:53;17.70;99.20
61255;DHT22;47128;47.530;8.584;2022-09-09T17:40:19;17.80;98.60
61255;DHT22;47128;47.530;8.584;2022-09-09T17:42:45;17.80;99.10
61255;DHT22;47128;47.530;8.584;2022-09-09T17:45:11;17.80;99.30
61255;DHT22;47128;47.530;8.584;2022-09-09T17:47:36;17.80;98.20
61255;DHT22;47128;47.530;8.584;2022-09-09T17:50:02;17.80;99.90
61255;DHT22;47128;47.530;8.584;2022-09-09T17:52:28;17.70;99.90
61255;DHT22;47128;47.530;8.584;2022-09-09T17:54:55;17.50;99.90
61255;DHT22;47128;47.530;8.584;2022-09-09T17:57:22;17.30;99.90
61255;DHT22;47128;47.530;8.584;2022-09-09T17:59:48;17.10;99.90
61255;DHT22;47128;47.530;8.584;2022-09-09T18:02:13;16.90;99.90
61255;DHT22;47128;47.530;8.584;2022-09-09T18:04:39;16.70;99.90
61255;DHT22;47128;47.530;8.584;2022-09-09T18:07:07;16.70;99.90
61255;DHT22;47128;47.530;8.584;2022-09-09T18:09:32;16.70;99.90
61255;DHT22;47128;47.530;8.584;2022-09-09T18:11:59;16.60;99.90
61255;DHT22;47128;47.530;8.584;2022-09-09T18:14:27;16.40;99.90
61255;DHT22;47128;47.530;8.584;2022-09-09T18:16:55;16.40;99.90
61255;DHT22;47128;47.530;8.584;2022-09-09T18:19:24;16.30;99.90
61255;DHT22;47128;47.530;8.584;2022-09-09T18:21:50;16.20;99.90
61255;DHT22;47128;47.530;8.584;2022-09-09T18:24:18;16.10;99.90
61255;DHT22;47128;47.530;8.584;2022-09-09T18:26:48;16.10;99.90
61255;DHT22;47128;47.530;8.584;2022-09-09T18:29:17;15.90;99.90
61255;DHT22;47128;47.530;8.584;2022-09-09T18:31:44;15.90;99.90
61255;DHT22;47128;47.530;8.584;2022-09-09T18:34:12;15.90;99.90